createdAt,value
2023-04-07T00:00:33.887Z,89.85
2023-04-07T00:03:00.615Z,87.47
2023-04-07T00:05:27.296Z,89.89
2023-04-07T00:07:56.809Z,90.68
2023-04-07T00:10:25.174Z,89.90
2023-04-07T00:12:52.107Z,88.90
2023-04-07T00:15:18.823Z,89.98
2023-04-07T00:17:45.468Z,90.89
2023-04-07T00:20:12.514Z,91.28
2023-04-07T00:22:39.196Z,93.29
2023-04-07T00:25:06.692Z,91.57
2023-04-07T00:27:33.333Z,90.01
2023-04-07T00:30:00.006Z,89.67
2023-04-07T00:32:26.707Z,89.70
2023-04-07T00:34:53.466Z,89.63
2023-04-07T00:37:20.250Z,92.04
2023-04-07T00:39:46.907Z,91.46
2023-04-07T00:42:14.014Z,91.95
2023-04-07T00:44:40.749Z,93.31
2023-04-07T00:47:07.440Z,92.59
2023-04-07T00:49:34.293Z,91.63
2023-04-07T00:52:01.282Z,92.99
2023-04-07T00:54:30.346Z,89.67
2023-04-07T00:56:57.307Z,88.87
2023-04-07T00:59:24.254Z,89.37
2023-04-07T01:02:23.647Z,93.12
2023-04-07T01:05:07.560Z,95.18
2023-04-07T01:07:58.416Z,95.08
2023-04-07T01:10:36.023Z,92.87
2023-04-07T01:13:15.153Z,91.15
2023-04-07T01:15:45.975Z,92.85
2023-04-07T01:18:21.893Z,93.92
2023-04-07T01:20:51.644Z,91.37
2023-04-07T01:23:32.514Z,91.70
2023-04-07T01:26:19.232Z,90.36
2023-04-07T01:29:19.977Z,92.99
2023-04-07T01:31:49.371Z,93.83
2023-04-07T01:34:17.589Z,94.01
2023-04-07T01:36:45.840Z,92.95
2023-04-07T01:39:13.704Z,89.34
2023-04-07T01:41:42.016Z,87.51
2023-04-07T01:44:09.893Z,88.65
2023-04-07T01:46:36.496Z,91.49
2023-04-07T01:49:04.952Z,92.39
2023-04-07T01:51:33.479Z,92.72
2023-04-07T01:54:02.202Z,92.38
2023-04-07T01:56:28.989Z,94.00
2023-04-07T01:58:55.626Z,92.35
2023-04-07T02:01:22.505Z,91.88
2023-04-07T02:03:55.471Z,88.57
2023-04-07T02:06:29.635Z,90.18
2023-04-07T02:09:00.539Z,89.83
2023-04-07T02:11:29.626Z,88.24
2023-04-07T02:13:57.702Z,88.45
2023-04-07T02:16:26.162Z,90.03
2023-04-07T02:18:53.173Z,91.11
2023-04-07T02:21:19.968Z,90.58
2023-04-07T02:23:47.038Z,92.59
2023-04-07T02:26:13.825Z,93.23
2023-04-07T02:28:40.697Z,93.75
2023-04-07T02:31:07.342Z,90.55
2023-04-07T02:33:33.987Z,92.80
2023-04-07T02:36:00.635Z,92.87
2023-04-07T02:38:27.264Z,92.95
2023-04-07T02:40:53.928Z,93.71
2023-04-07T02:43:23.999Z,94.84
2023-04-07T02:45:50.708Z,93.35
2023-04-07T02:48:17.435Z,94.65
2023-04-07T02:50:44.092Z,93.75
2023-04-07T02:53:10.845Z,93.39
2023-04-07T02:55:37.546Z,94.36
2023-04-07T02:58:04.158Z,95.98
2023-04-07T03:00:30.841Z,96.57
2023-04-07T03:02:57.646Z,92.25
2023-04-07T03:05:24.364Z,89.72
2023-04-07T03:07:51.064Z,91.58
2023-04-07T03:10:17.798Z,89.78
2023-04-07T03:12:44.638Z,91.87
2023-04-07T03:15:11.433Z,96.06
2023-04-07T03:17:38.273Z,94.26
2023-04-07T03:20:06.069Z,95.61
2023-04-07T03:22:32.689Z,96.25
2023-04-07T03:24:59.426Z,91.48
2023-04-07T03:27:26.188Z,90.03
2023-04-07T03:29:54.390Z,89.44
2023-04-07T03:32:21.094Z,89.90
2023-04-07T03:34:47.709Z,92.12
2023-04-07T03:37:14.366Z,92.47
2023-04-07T03:39:41.116Z,90.55
2023-04-07T03:42:08.052Z,90.49
2023-04-07T03:44:34.689Z,93.88
2023-04-07T03:47:01.591Z,93.81
2023-04-07T03:49:28.494Z,94.53
2023-04-07T03:51:55.201Z,94.66
2023-04-07T03:54:21.784Z,92.37
2023-04-07T03:56:48.679Z,93.36
2023-04-07T03:59:15.373Z,93.52
2023-04-07T04:01:42.346Z,92.92
2023-04-07T04:04:09.189Z,92.79
2023-04-07T04:06:36.028Z,93.66
2023-04-07T04:09:02.800Z,94.30
2023-04-07T04:11:29.487Z,93.86
2023-04-07T04:13:56.293Z,94.60
2023-04-07T04:16:23.037Z,95.69
2023-04-07T04:18:49.654Z,94.90
2023-04-07T04:21:16.366Z,95.77
2023-04-07T04:23:43.118Z,87.39
2023-04-07T04:26:09.779Z,85.25
2023-04-07T04:28:36.770Z,85.78
2023-04-07T04:31:04.254Z,89.17
2023-04-07T04:33:30.962Z,91.46
2023-04-07T04:35:57.791Z,91.97
2023-04-07T04:38:24.413Z,92.74
2023-04-07T04:40:51.182Z,92.46
2023-04-07T04:43:17.840Z,93.84
2023-04-07T04:45:44.492Z,92.58
2023-04-07T04:48:11.536Z,93.88
2023-04-07T04:50:38.173Z,93.40
2023-04-07T04:53:04.808Z,90.44
2023-04-07T04:55:31.555Z,90.19
2023-04-07T04:57:58.264Z,90.42
2023-04-07T05:00:25.106Z,91.41
2023-04-07T05:02:51.945Z,93.28
2023-04-07T05:05:18.792Z,92.23
2023-04-07T05:07:45.460Z,92.43
2023-04-07T05:10:12.088Z,92.67
2023-04-07T05:12:38.914Z,88.69
2023-04-07T05:15:06.522Z,86.58
2023-04-07T05:17:33.234Z,84.89
2023-04-07T05:19:59.878Z,85.73
2023-04-07T05:22:26.483Z,85.44
2023-04-07T05:24:53.200Z,84.83
2023-04-07T05:27:19.900Z,85.91
2023-04-07T05:29:46.559Z,83.95
2023-04-07T05:32:13.406Z,83.45
2023-04-07T05:34:40.244Z,83.79
2023-04-07T05:37:07.017Z,84.80
2023-04-07T05:39:33.713Z,85.05
2023-04-07T05:42:00.382Z,87.45
2023-04-07T05:44:27.255Z,86.60
2023-04-07T05:46:54.039Z,86.81
2023-04-07T05:49:20.851Z,85.32
2023-04-07T05:51:48.989Z,86.10
2023-04-07T05:54:16.048Z,89.04
2023-04-07T05:56:42.696Z,88.85
2023-04-07T05:59:09.429Z,89.10
2023-04-07T06:01:36.124Z,88.44
2023-04-07T06:04:02.938Z,86.61
2023-04-07T06:06:29.658Z,85.84
2023-04-07T06:08:56.307Z,87.39
2023-04-07T06:11:22.947Z,86.49
2023-04-07T06:13:49.961Z,87.52
2023-04-07T06:16:18.349Z,85.54
2023-04-07T06:18:46.558Z,83.66
2023-04-07T06:21:13.211Z,88.50
2023-04-07T06:23:39.826Z,87.93
2023-04-07T06:26:06.636Z,86.67
2023-04-07T06:28:33.269Z,88.98
2023-04-07T06:31:00.194Z,88.70
2023-04-07T06:33:26.895Z,90.77
2023-04-07T06:35:53.582Z,89.71
2023-04-07T06:38:20.592Z,87.85
2023-04-07T06:40:47.224Z,87.94
2023-04-07T06:43:13.840Z,90.11
2023-04-07T06:45:40.614Z,90.32
2023-04-07T06:48:07.666Z,91.37
2023-04-07T06:50:34.472Z,90.80
2023-04-07T06:53:01.213Z,90.93
2023-04-07T06:55:27.904Z,91.48
2023-04-07T06:57:54.527Z,91.84
2023-04-07T07:00:21.407Z,89.30
2023-04-07T07:02:48.325Z,88.37
2023-04-07T07:05:15.347Z,87.57
2023-04-07T07:07:41.961Z,91.09
2023-04-07T07:10:11.519Z,90.89
2023-04-07T07:12:38.204Z,90.00
2023-04-07T07:15:05.520Z,88.36
2023-04-07T07:17:32.217Z,87.51
2023-04-07T07:19:58.926Z,86.50
2023-04-07T07:22:25.756Z,85.22
2023-04-07T07:24:52.683Z,86.33
2023-04-07T07:27:19.472Z,87.07
2023-04-07T07:29:46.089Z,89.35
2023-04-07T07:32:14.327Z,90.12
2023-04-07T07:34:41.025Z,87.41
2023-04-07T07:37:07.644Z,86.92
2023-04-07T07:39:34.317Z,81.93
2023-04-07T07:42:01.026Z,81.91
2023-04-07T07:44:27.731Z,82.50
2023-04-07T07:46:54.571Z,83.50
2023-04-07T07:49:21.193Z,85.46
2023-04-07T07:51:47.812Z,86.64
2023-04-07T07:54:14.505Z,85.03
2023-04-07T07:56:41.174Z,85.74
2023-04-07T07:59:07.859Z,85.93
2023-04-07T08:01:34.534Z,82.18
2023-04-07T08:04:01.709Z,82.83
2023-04-07T08:06:28.441Z,84.04
2023-04-07T08:08:55.156Z,86.54
2023-04-07T08:11:21.844Z,88.24
2023-04-07T08:13:48.649Z,85.68
2023-04-07T08:16:15.717Z,85.64
2023-04-07T08:18:42.392Z,88.62
2023-04-07T08:21:09.042Z,88.30
2023-04-07T08:23:35.882Z,85.59
2023-04-07T08:26:02.502Z,89.43
2023-04-07T08:28:29.153Z,87.49
2023-04-07T08:30:55.881Z,89.96
2023-04-07T08:33:22.529Z,90.89
2023-04-07T08:35:49.252Z,89.62
2023-04-07T08:38:16.018Z,88.57
2023-04-07T08:40:42.937Z,88.42
2023-04-07T08:43:10.389Z,90.06
2023-04-07T08:45:40.163Z,84.76
2023-04-07T08:48:16.507Z,89.20
2023-04-07T08:50:45.400Z,91.27
2023-04-07T08:53:13.950Z,86.78
2023-04-07T08:55:41.801Z,85.79
2023-04-07T08:58:11.892Z,86.77
2023-04-07T09:00:40.874Z,86.38
2023-04-07T09:05:36.155Z,92.15
2023-04-07T09:08:03.388Z,92.19
2023-04-07T09:10:30.691Z,92.83
2023-04-07T09:12:59.218Z,93.05
2023-04-07T09:15:30.568Z,92.79
2023-04-07T09:17:57.744Z,93.82
2023-04-07T09:20:24.467Z,95.06
2023-04-07T09:22:51.746Z,91.18
2023-04-07T09:25:23.595Z,92.12
2023-04-07T09:28:00.281Z,90.74
2023-04-07T09:30:28.540Z,90.69
2023-04-07T09:32:55.403Z,90.05
2023-04-07T09:35:22.550Z,89.33
2023-04-07T09:38:21.837Z,90.73
2023-04-07T09:40:48.547Z,93.30
2023-04-07T09:43:18.100Z,89.14
2023-04-07T09:45:45.066Z,93.20
2023-04-07T09:48:21.769Z,94.01
2023-04-07T09:50:48.887Z,89.54
2023-04-07T09:53:16.363Z,93.84
2023-04-07T09:55:43.695Z,92.64
2023-04-07T09:58:13.069Z,89.16
2023-04-07T10:00:41.387Z,90.65
2023-04-07T10:03:08.470Z,86.13
2023-04-07T10:05:35.350Z,86.79
2023-04-07T10:08:02.399Z,87.81
2023-04-07T10:10:30.221Z,88.15
2023-04-07T10:12:57.453Z,89.81
2023-04-07T10:15:24.561Z,88.02
2023-04-07T10:17:52.019Z,87.56
2023-04-07T10:20:19.706Z,91.65
2023-04-07T10:22:49.314Z,92.85
2023-04-07T10:25:19.722Z,92.26
2023-04-07T10:27:56.886Z,84.21
2023-04-07T10:30:32.839Z,87.63
2023-04-07T10:32:59.674Z,89.95
2023-04-07T10:35:26.957Z,91.96
2023-04-07T10:38:09.006Z,93.25
2023-04-07T10:40:36.666Z,93.75
2023-04-07T10:43:04.579Z,93.99
2023-04-07T10:45:49.843Z,86.63
2023-04-07T10:48:18.343Z,83.58
2023-04-07T10:50:46.357Z,82.06
2023-04-07T10:53:15.105Z,82.56
2023-04-07T10:55:54.663Z,83.73
2023-04-07T10:58:25.777Z,84.93
2023-04-07T11:01:01.470Z,85.08
2023-04-07T11:03:30.022Z,84.38
2023-04-07T11:06:07.148Z,86.58
2023-04-07T11:08:44.201Z,84.65
2023-04-07T11:11:13.411Z,86.06
2023-04-07T11:13:41.235Z,84.05
2023-04-07T11:16:08.306Z,80.70
2023-04-07T11:18:36.225Z,84.60
2023-04-07T11:21:03.956Z,83.51
2023-04-07T11:23:30.560Z,83.17
2023-04-07T11:26:01.720Z,84.98
2023-04-07T11:28:31.746Z,82.01
2023-04-07T11:30:59.089Z,81.91
2023-04-07T11:33:27.674Z,85.85
2023-04-07T11:36:01.517Z,85.32
2023-04-07T11:38:38.814Z,81.80
2023-04-07T11:41:13.983Z,78.14
2023-04-07T11:43:40.750Z,78.88
2023-04-07T11:46:10.139Z,82.80
2023-04-07T11:48:41.092Z,81.59
2023-04-07T11:51:18.929Z,81.02
2023-04-07T11:53:46.663Z,79.92
2023-04-07T11:56:15.704Z,79.36
2023-04-07T11:58:54.832Z,79.18
2023-04-07T12:01:23.476Z,81.35
2023-04-07T12:04:02.215Z,77.66
2023-04-07T12:06:31.137Z,76.98
2023-04-07T12:08:57.749Z,76.99
2023-04-07T12:11:24.668Z,77.99
2023-04-07T12:13:51.405Z,77.13
2023-04-07T12:16:18.169Z,74.96
2023-04-07T12:18:45.179Z,77.37
2023-04-07T12:21:11.800Z,77.55
2023-04-07T12:23:38.407Z,76.94
2023-04-07T12:26:05.064Z,70.93
2023-04-07T12:28:31.673Z,75.32
2023-04-07T12:30:58.338Z,73.69
2023-04-07T12:33:25.123Z,78.55
2023-04-07T12:35:52.114Z,80.14
2023-04-07T12:38:18.798Z,76.82
2023-04-07T12:40:45.532Z,75.97
2023-04-07T12:43:12.270Z,78.74
2023-04-07T12:45:39.283Z,78.09
2023-04-07T12:48:06.122Z,76.55
2023-04-07T12:50:32.928Z,72.85
2023-04-07T12:52:59.574Z,73.41
2023-04-07T12:55:26.448Z,74.23
2023-04-07T12:57:53.132Z,69.80
2023-04-07T13:00:19.887Z,77.42
2023-04-07T13:02:46.818Z,77.28
2023-04-07T13:05:13.546Z,76.28
2023-04-07T13:07:40.235Z,77.28
2023-04-07T13:10:07.568Z,78.36
2023-04-07T13:12:34.468Z,72.96
2023-04-07T13:15:01.110Z,72.11
2023-04-07T13:17:28.476Z,77.03
2023-04-07T13:19:55.822Z,75.37
2023-04-07T13:22:24.479Z,76.65
2023-04-07T13:24:52.586Z,75.98
2023-04-07T13:27:19.336Z,77.34
2023-04-07T13:29:46.070Z,74.22
2023-04-07T13:32:12.883Z,73.27
2023-04-07T13:34:39.611Z,73.81
2023-04-07T13:37:06.369Z,72.85
2023-04-07T13:39:33.674Z,75.13
2023-04-07T13:42:00.325Z,73.13
2023-04-07T13:44:28.199Z,72.23
2023-04-07T13:46:56.689Z,73.43
2023-04-07T13:49:23.561Z,74.41
2023-04-07T13:51:50.224Z,73.68
2023-04-07T13:54:17.472Z,75.05
2023-04-07T13:56:44.243Z,73.67
2023-04-07T13:59:10.992Z,73.99
2023-04-07T14:01:37.884Z,77.88
2023-04-07T14:04:05.194Z,78.06
2023-04-07T14:06:32.075Z,76.64
2023-04-07T14:08:59.023Z,74.11
2023-04-07T14:11:25.819Z,76.86
2023-04-07T14:13:52.962Z,75.27
2023-04-07T14:16:19.605Z,74.68
2023-04-07T14:18:46.316Z,73.96
2023-04-07T14:21:13.205Z,75.17
2023-04-07T14:23:39.893Z,75.08
2023-04-07T14:26:10.047Z,76.86
2023-04-07T14:28:36.791Z,76.38
2023-04-07T14:31:03.559Z,74.43
2023-04-07T14:33:30.286Z,74.85
2023-04-07T14:35:57.112Z,74.42
2023-04-07T14:38:23.798Z,74.49
2023-04-07T14:40:50.545Z,74.93
2023-04-07T14:43:17.192Z,78.10
2023-04-07T14:45:43.974Z,77.55
2023-04-07T14:48:10.669Z,75.84
2023-04-07T14:50:37.495Z,75.49
2023-04-07T14:53:04.112Z,74.20
2023-04-07T14:55:30.814Z,73.63
2023-04-07T14:57:57.444Z,74.72
2023-04-07T15:00:24.108Z,75.14
2023-04-07T15:02:51.007Z,73.51
2023-04-07T15:05:17.983Z,73.72
2023-04-07T15:07:44.694Z,70.85
2023-04-07T15:10:11.399Z,72.03
2023-04-07T15:12:38.112Z,73.37
2023-04-07T15:15:05.220Z,75.32
2023-04-07T15:17:42.987Z,75.21
2023-04-07T15:20:10.874Z,74.04
2023-04-07T15:22:37.594Z,71.84
2023-04-07T15:25:04.653Z,74.66
2023-04-07T15:27:31.291Z,74.03
2023-04-07T15:29:57.964Z,74.03
2023-04-07T15:32:24.773Z,74.57
2023-04-07T15:34:51.444Z,75.06
2023-04-07T15:37:18.059Z,75.59
2023-04-07T15:39:44.830Z,75.52
2023-04-07T15:42:11.518Z,78.33
2023-04-07T15:44:38.779Z,75.68
2023-04-07T15:47:06.449Z,76.05
2023-04-07T15:49:33.326Z,77.37
2023-04-07T15:52:00.914Z,78.63
2023-04-07T15:54:27.647Z,79.06
2023-04-07T15:56:54.275Z,78.14
2023-04-07T15:59:20.923Z,77.76
2023-04-07T16:01:48.374Z,77.27
2023-04-07T16:04:15.474Z,76.40
2023-04-07T16:06:42.173Z,78.86
2023-04-07T16:09:08.825Z,78.68
2023-04-07T16:11:35.680Z,78.31
2023-04-07T16:14:02.454Z,79.31
2023-04-07T16:16:31.279Z,79.43
2023-04-07T16:18:57.958Z,79.73
2023-04-07T16:21:24.735Z,79.66
2023-04-07T16:23:51.380Z,79.35
2023-04-07T16:26:18.011Z,79.37
2023-04-07T16:28:44.650Z,81.11
2023-04-07T16:31:11.267Z,81.32
2023-04-07T16:33:37.962Z,80.52
2023-04-07T16:36:06.659Z,79.73
2023-04-07T16:38:33.292Z,79.49
2023-04-07T16:41:04.584Z,80.25
2023-04-07T16:43:31.763Z,79.34
2023-04-07T16:45:58.422Z,79.39
2023-04-07T16:48:25.111Z,79.21
2023-04-07T16:50:51.918Z,79.41
2023-04-07T16:53:20.926Z,78.95
2023-04-07T16:55:48.072Z,78.73
2023-04-07T16:58:17.655Z,82.02
2023-04-07T17:00:44.726Z,81.59
2023-04-07T17:03:14.389Z,80.80
2023-04-07T17:05:50.364Z,80.80
2023-04-07T17:08:17.057Z,79.54
2023-04-07T17:10:43.697Z,80.35
2023-04-07T17:13:10.361Z,81.92
2023-04-07T17:15:37.069Z,81.07
2023-04-07T17:18:04.080Z,79.93
2023-04-07T17:20:30.791Z,81.26
2023-04-07T17:22:57.395Z,81.55
2023-04-07T17:25:24.094Z,82.41
2023-04-07T17:27:50.782Z,82.53
2023-04-07T17:30:17.555Z,83.88
2023-04-07T17:32:44.263Z,82.41
2023-04-07T17:35:10.977Z,82.31
2023-04-07T17:37:37.731Z,84.00
2023-04-07T17:40:04.984Z,84.47
2023-04-07T17:42:31.670Z,81.99
2023-04-07T17:44:58.555Z,83.05
2023-04-07T17:47:25.263Z,84.12
2023-04-07T17:49:52.047Z,85.20
2023-04-07T17:52:18.680Z,83.89
2023-04-07T17:54:45.328Z,84.54
2023-04-07T17:57:12.196Z,83.35
2023-04-07T17:59:38.804Z,84.31
2023-04-07T18:02:05.726Z,84.90
2023-04-07T18:04:34.575Z,84.35
2023-04-07T18:07:01.250Z,83.54
2023-04-07T18:09:27.847Z,83.08
2023-04-07T18:11:54.510Z,82.98
2023-04-07T18:14:21.250Z,83.59
2023-04-07T18:16:47.960Z,83.00
2023-04-07T18:19:14.650Z,83.10
2023-04-07T18:21:41.382Z,86.19
2023-04-07T18:24:07.986Z,86.69
2023-04-07T18:26:35.255Z,85.59
2023-04-07T18:29:01.891Z,86.03
2023-04-07T18:31:28.610Z,86.36
2023-04-07T18:33:55.423Z,86.88
2023-04-07T18:36:22.277Z,86.17
2023-04-07T18:38:48.956Z,86.25
2023-04-07T18:41:15.554Z,85.82
2023-04-07T18:43:42.175Z,85.95
2023-04-07T18:46:08.880Z,87.60
2023-04-07T18:48:35.490Z,88.39
2023-04-07T18:51:03.051Z,88.42
2023-04-07T18:53:29.686Z,86.93
2023-04-07T18:55:56.308Z,88.01
2023-04-07T18:58:22.954Z,86.76
2023-04-07T19:00:49.688Z,86.06
2023-04-07T19:03:16.699Z,87.49
2023-04-07T19:05:47.224Z,88.01
2023-04-07T19:08:15.343Z,89.08
2023-04-07T19:10:42.064Z,89.31
2023-04-07T19:13:08.751Z,89.11
2023-04-07T19:15:35.540Z,88.97
2023-04-07T19:18:02.628Z,90.39
2023-04-07T19:20:29.487Z,90.30
2023-04-07T19:22:56.869Z,90.81
2023-04-07T19:25:24.108Z,90.95
2023-04-07T19:27:51.417Z,90.64
2023-04-07T19:30:20.863Z,89.71
2023-04-07T19:32:47.859Z,93.25
2023-04-07T19:35:17.779Z,92.28
2023-04-07T19:37:45.662Z,91.19
2023-04-07T19:40:14.092Z,91.81
2023-04-07T19:42:41.436Z,92.78
2023-04-07T19:45:08.620Z,91.95
2023-04-07T19:47:35.998Z,91.87
2023-04-07T19:50:03.456Z,92.22
2023-04-07T19:52:37.207Z,92.85
2023-04-07T19:55:04.249Z,96.43
2023-04-07T19:57:31.508Z,94.98
2023-04-07T19:59:58.382Z,94.72
2023-04-07T20:02:25.177Z,94.27
2023-04-07T20:04:53.141Z,93.29
2023-04-07T20:07:19.796Z,93.30
2023-04-07T20:09:46.577Z,93.88
2023-04-07T20:12:13.446Z,94.38
2023-04-07T20:14:40.174Z,93.41
2023-04-07T20:17:06.855Z,93.08
2023-04-07T20:19:33.664Z,93.45
2023-04-07T20:22:00.362Z,93.14
2023-04-07T20:24:27.014Z,93.71
2023-04-07T20:26:53.710Z,93.03
2023-04-07T20:29:22.150Z,92.98
2023-04-07T20:31:49.010Z,92.79
2023-04-07T20:34:15.744Z,93.77
2023-04-07T20:36:42.376Z,93.76
2023-04-07T20:39:08.999Z,94.73
2023-04-07T20:41:35.818Z,95.10
2023-04-07T20:44:02.480Z,95.25
2023-04-07T20:46:29.105Z,94.48
2023-04-07T20:48:55.808Z,93.44
2023-04-07T20:51:22.525Z,92.46
2023-04-07T20:53:49.271Z,91.43
2023-04-07T20:56:15.911Z,91.90
2023-04-07T20:58:42.558Z,92.23
2023-04-07T21:01:09.345Z,95.22
2023-04-07T21:03:36.257Z,95.63
2023-04-07T21:06:03.154Z,95.67
2023-04-07T21:08:29.918Z,95.11
2023-04-07T21:10:56.532Z,94.87
2023-04-07T21:13:23.133Z,94.40
2023-04-07T21:15:49.840Z,94.08
2023-04-07T21:18:18.037Z,94.44
2023-04-07T21:20:45.820Z,94.65
2023-04-07T21:23:12.502Z,95.17
2023-04-07T21:25:39.310Z,94.60
2023-04-07T21:28:05.995Z,93.51
2023-04-07T21:30:32.715Z,94.79
2023-04-07T21:32:59.416Z,94.46
2023-04-07T21:35:29.204Z,96.08
2023-04-07T21:37:56.403Z,96.95
2023-04-07T21:40:23.157Z,95.60
2023-04-07T21:42:49.860Z,94.60
2023-04-07T21:45:16.703Z,94.68
2023-04-07T21:47:43.357Z,95.44
2023-04-07T21:50:10.722Z,97.52
2023-04-07T21:52:37.397Z,96.33
2023-04-07T21:55:04.275Z,96.75
2023-04-07T21:57:30.969Z,95.97
2023-04-07T21:59:57.810Z,93.82
2023-04-07T22:02:24.691Z,96.40
2023-04-07T22:04:51.581Z,95.51
2023-04-07T22:07:18.401Z,97.34
2023-04-07T22:09:45.076Z,96.16
2023-04-07T22:12:11.894Z,95.64
2023-04-07T22:14:38.644Z,94.51
2023-04-07T22:17:05.623Z,94.50
2023-04-07T22:19:32.254Z,96.37
2023-04-07T22:21:59.057Z,97.80
2023-04-07T22:24:25.787Z,98.51
2023-04-07T22:26:52.404Z,98.43
2023-04-07T22:29:19.029Z,96.03
2023-04-07T22:31:45.758Z,97.95
2023-04-07T22:34:12.444Z,96.00
2023-04-07T22:36:39.142Z,97.23
2023-04-07T22:39:05.742Z,95.77
2023-04-07T22:41:32.436Z,94.73
2023-04-07T22:43:59.185Z,95.66
2023-04-07T22:46:25.780Z,95.52
2023-04-07T22:48:52.512Z,95.84
2023-04-07T22:51:19.148Z,96.62
2023-04-07T22:53:45.872Z,96.13
2023-04-07T22:56:12.840Z,94.86
2023-04-07T22:58:39.822Z,95.68
2023-04-07T23:01:06.598Z,96.02
2023-04-07T23:03:33.336Z,96.59
2023-04-07T23:06:00.045Z,93.79
2023-04-07T23:08:26.644Z,93.22
2023-04-07T23:10:53.420Z,92.30
2023-04-07T23:13:20.099Z,91.91
2023-04-07T23:15:46.885Z,93.27
2023-04-07T23:18:13.527Z,94.17
2023-04-07T23:20:41.224Z,95.23
2023-04-07T23:23:07.846Z,96.23
2023-04-07T23:25:34.489Z,98.02
2023-04-07T23:28:01.152Z,98.59
2023-04-07T23:30:27.767Z,98.23
2023-04-07T23:32:54.393Z,98.06
2023-04-07T23:35:21.203Z,98.40
2023-04-07T23:37:48.031Z,99.00
2023-04-07T23:40:14.831Z,100.00
2023-04-07T23:42:41.542Z,99.53
2023-04-07T23:45:08.704Z,100.00
2023-04-07T23:47:35.374Z,99.57
2023-04-07T23:50:02.124Z,99.43
2023-04-07T23:52:28.799Z,100.00
2023-04-07T23:54:55.440Z,99.19
2023-04-07T23:57:22.186Z,100.00
2023-04-07T23:59:48.838Z,100.00
